Time;durP1;ratioP1;P1;durP2;ratioP2;P2;SDS_P1;SDS_P2;PMS_P1;PMS_P2;Temp;Humidity;BMP_temperature;BMP_pressure;BME280_temperature;BME280_humidity;BME280_pressure;Samples;Min_cycle;Max_cycle;Signal;HPM_P1;HPM_P2
2023/09/02 00:00:03;;;;;;;6.60;5.60;;;;;;;;;;5055245;28;20205;-60
2023/09/02 00:02:29;;;;;;;8.63;5.67;;;;;;;;;;5055415;28;20196;-60
2023/09/02 00:04:55;;;;;;;7.40;5.93;;;;;;;;;;5055138;28;20237;-60
2023/09/02 00:07:21;;;;;;;8.07;5.97;;;;;;;;;;5055364;28;20205;-60
2023/09/02 00:09:47;;;;;;;6.83;6.10;;;;;;;;;;5055159;28;20197;-60
2023/09/02 00:12:14;;;;;;;7.70;5.60;;;;;;;;;;5055047;28;20232;-60
2023/09/02 00:14:40;;;;;;;6.83;5.60;;;;;;;;;;5055237;28;20218;-60
2023/09/02 00:17:06;;;;;;;6.37;5.77;;;;;;;;;;5053732;28;20284;-60
2023/09/02 00:19:32;;;;;;;7.13;5.70;;;;;;;;;;5055058;28;20212;-60
2023/09/02 00:21:58;;;;;;;7.70;5.63;;;;;;;;;;5054867;28;20718;-60
2023/09/02 00:24:24;;;;;;;6.63;6.03;;;;;;;;;;5055007;28;20291;-58
2023/09/02 00:26:50;;;;;;;7.27;5.23;;;;;;;;;;5054810;28;20285;-58
2023/09/02 00:29:17;;;;;;;5.90;5.30;;;;;;;;;;5054841;28;20283;-59
2023/09/02 00:31:43;;;;;;;6.57;5.87;;;;;;;;;;5054685;28;20311;-61
2023/09/02 00:34:09;;;;;;;8.40;5.87;;;;;;;;;;5054799;28;20661;-61
2023/09/02 00:36:36;;;;;;;6.70;5.00;;;;;;;;;;5054715;28;20225;-58
2023/09/02 00:39:02;;;;;;;8.17;5.43;;;;;;;;;;5054403;28;20239;-58
2023/09/02 00:41:30;;;;;;;7.63;6.50;;;;;;;;;;5054801;28;20331;-58
2023/09/02 00:43:56;;;;;;;7.60;5.60;;;;;;;;;;5054357;28;20275;-59
2023/09/02 00:46:24;;;;;;;6.53;5.20;;;;;;;;;;5054704;28;20217;-58
2023/09/02 00:48:50;;;;;;;7.70;5.90;;;;;;;;;;5054404;28;20197;-58
2023/09/02 00:51:16;;;;;;;7.27;5.50;;;;;;;;;;5054265;28;20663;-59
2023/09/02 00:53:43;;;;;;;5.43;4.93;;;;;;;;;;5054301;28;20228;-58
2023/09/02 00:56:09;;;;;;;6.27;5.30;;;;;;;;;;5054380;28;20202;-58
2023/09/02 00:58:35;;;;;;;6.47;5.60;;;;;;;;;;5054326;28;20205;-58
2023/09/02 01:01:03;;;;;;;6.90;5.47;;;;;;;;;;5062030;28;20216;-59
2023/09/02 01:03:30;;;;;;;7.47;5.60;;;;;;;;;;5074270;28;20278;-58
2023/09/02 01:05:56;;;;;;;7.20;5.00;;;;;;;;;;5074197;28;20204;-61
2023/09/02 01:08:22;;;;;;;6.43;5.70;;;;;;;;;;5074316;28;20209;-59
2023/09/02 01:10:49;;;;;;;5.97;5.43;;;;;;;;;;5073982;28;20562;-59
2023/09/02 01:13:15;;;;;;;6.30;5.30;;;;;;;;;;5073921;28;20266;-58
2023/09/02 01:15:41;;;;;;;5.90;4.83;;;;;;;;;;5074057;28;20196;-58
2023/09/02 01:18:07;;;;;;;7.93;5.60;;;;;;;;;;5073874;28;20199;-59
2023/09/02 01:20:40;;;;;;;6.60;5.50;;;;;;;;;;5073866;28;20196;-58
2023/09/02 01:23:21;;;;;;;6.30;5.27;;;;;;;;;;5073716;28;20204;-58
2023/09/02 01:25:58;;;;;;;7.53;6.10;;;;;;;;;;5071377;28;20222;-58
2023/09/02 01:28:28;;;;;;;8.70;6.30;;;;;;;;;;5073914;28;20246;-59
2023/09/02 01:30:55;;;;;;;6.47;5.87;;;;;;;;;;5073782;28;20215;-59
2023/09/02 01:33:21;;;;;;;6.87;5.97;;;;;;;;;;5073711;28;20229;-58
2023/09/02 01:35:49;;;;;;;6.80;6.07;;;;;;;;;;5073603;28;20199;-58
2023/09/02 01:38:15;;;;;;;7.60;5.93;;;;;;;;;;5073656;28;20202;-58
2023/09/02 01:40:43;;;;;;;7.07;5.77;;;;;;;;;;5073582;28;20193;-59
2023/09/02 01:43:09;;;;;;;9.20;6.30;;;;;;;;;;5073298;28;20240;-58
2023/09/02 01:45:37;;;;;;;8.90;6.50;;;;;;;;;;5073388;28;20696;-58
2023/09/02 01:48:04;;;;;;;8.40;6.33;;;;;;;;;;5073243;28;20204;-58
2023/09/02 01:50:32;;;;;;;6.03;5.50;;;;;;;;;;5073421;28;20208;-58
2023/09/02 01:52:58;;;;;;;7.37;6.13;;;;;;;;;;5073077;28;20274;-59
2023/09/02 01:55:25;;;;;;;6.70;5.90;;;;;;;;;;5073303;28;20196;-58
2023/09/02 01:57:51;;;;;;;7.10;6.20;;;;;;;;;;5071367;28;20290;-59
2023/09/02 02:00:17;;;;;;;6.37;5.77;;;;;;;;;;5073086;28;20326;-59
2023/09/02 02:02:45;;;;;;;6.37;5.73;;;;;;;;;;5073169;28;20200;-59
2023/09/02 02:05:13;;;;;;;6.33;5.73;;;;;;;;;;5072420;28;20205;-59
2023/09/02 02:07:41;;;;;;;8.13;6.40;;;;;;;;;;5073127;28;20224;-59
2023/09/02 02:10:11;;;;;;;6.30;5.70;;;;;;;;;;5072864;28;20200;-58
2023/09/02 02:12:38;;;;;;;7.37;6.17;;;;;;;;;;5072934;28;20221;-58
2023/09/02 02:15:05;;;;;;;6.27;5.63;;;;;;;;;;5072738;28;20242;-58
2023/09/02 02:17:31;;;;;;;7.23;5.87;;;;;;;;;;5072871;28;20196;-59
2023/09/02 02:19:59;;;;;;;6.30;5.70;;;;;;;;;;5072711;28;20202;-59
2023/09/02 02:22:25;;;;;;;7.77;5.97;;;;;;;;;;5072943;28;20290;-59
2023/09/02 02:24:51;;;;;;;6.53;5.93;;;;;;;;;;5072540;28;20271;-59
2023/09/02 02:27:17;;;;;;;7.43;6.63;;;;;;;;;;5072601;28;20312;-59
2023/09/02 02:29:43;;;;;;;8.70;6.03;;;;;;;;;;5072590;28;20717;-59
2023/09/02 02:32:09;;;;;;;6.40;5.73;;;;;;;;;;5072416;28;20774;-59
2023/09/02 02:34:35;;;;;;;6.60;6.00;;;;;;;;;;5072492;28;20201;-59
2023/09/02 02:37:03;;;;;;;8.00;6.17;;;;;;;;;;5072307;28;20212;-58
2023/09/02 02:39:29;;;;;;;7.13;5.47;;;;;;;;;;5072341;28;20207;-59
2023/09/02 02:41:55;;;;;;;6.77;5.83;;;;;;;;;;5072255;28;20273;-58
2023/09/02 02:44:21;;;;;;;7.77;6.23;;;;;;;;;;5072290;28;20654;-59
2023/09/02 02:46:47;;;;;;;9.03;6.43;;;;;;;;;;5072295;28;20192;-58
2023/09/02 02:49:13;;;;;;;8.00;6.20;;;;;;;;;;5072247;28;20200;-58
2023/09/02 02:51:39;;;;;;;6.97;6.13;;;;;;;;;;5072293;28;20247;-59
2023/09/02 02:54:06;;;;;;;6.57;5.80;;;;;;;;;;5071908;28;20539;-59
2023/09/02 02:56:32;;;;;;;7.77;6.40;;;;;;;;;;5072279;28;20239;-59
2023/09/02 02:58:58;;;;;;;7.87;6.00;;;;;;;;;;5072019;28;20281;-59
2023/09/02 03:01:26;;;;;;;7.73;5.90;;;;;;;;;;5072258;28;20222;-59
2023/09/02 03:03:52;;;;;;;7.07;6.17;;;;;;;;;;5072059;28;20206;-58
2023/09/02 03:06:18;;;;;;;6.90;6.07;;;;;;;;;;5072126;28;20298;-59
2023/09/02 03:08:45;;;;;;;7.13;5.70;;;;;;;;;;5071942;28;20271;-58
2023/09/02 03:11:12;;;;;;;7.47;6.00;;;;;;;;;;5072033;28;20195;-59
2023/09/02 03:13:38;;;;;;;7.10;5.53;;;;;;;;;;5071859;28;20586;-59
2023/09/02 03:16:04;;;;;;;6.23;5.63;;;;;;;;;;5071522;28;20295;-59
2023/09/02 03:18:31;;;;;;;7.57;5.90;;;;;;;;;;5071419;28;20239;-58
2023/09/02 03:21:02;;;;;;;6.90;6.30;;;;;;;;;;5071807;28;20204;-59
2023/09/02 03:23:28;;;;;;;6.50;5.90;;;;;;;;;;5071843;28;20741;-59
2023/09/02 03:25:54;;;;;;;7.77;6.10;;;;;;;;;;5071867;28;20195;-58
2023/09/02 03:28:21;;;;;;;8.33;5.60;;;;;;;;;;5071767;28;20212;-59
2023/09/02 03:30:49;;;;;;;7.77;6.50;;;;;;;;;;5071882;28;20295;-60
2023/09/02 03:33:15;;;;;;;7.87;5.67;;;;;;;;;;5071527;28;20624;-59
2023/09/02 03:35:41;;;;;;;6.83;6.03;;;;;;;;;;5070089;28;20205;-60
2023/09/02 03:38:07;;;;;;;6.93;6.23;;;;;;;;;;5071646;28;20286;-60
2023/09/02 03:40:34;;;;;;;7.20;6.43;;;;;;;;;;5071711;28;20282;-60
2023/09/02 03:43:00;;;;;;;7.17;5.43;;;;;;;;;;5071378;28;20670;-60
2023/09/02 03:45:27;;;;;;;7.43;5.80;;;;;;;;;;5071664;28;20682;-60
2023/09/02 03:47:53;;;;;;;7.10;5.70;;;;;;;;;;5071698;28;20214;-59
2023/09/02 03:50:24;;;;;;;6.60;5.93;;;;;;;;;;5071677;28;20290;-60
2023/09/02 03:52:50;;;;;;;7.33;5.83;;;;;;;;;;5071382;28;20604;-60
2023/09/02 03:55:16;;;;;;;7.67;6.00;;;;;;;;;;5071463;28;20210;-60
2023/09/02 03:57:42;;;;;;;6.90;6.17;;;;;;;;;;5069843;28;20671;-59
2023/09/02 04:00:09;;;;;;;6.97;6.17;;;;;;;;;;5069798;28;20197;-59
2023/09/02 04:02:36;;;;;;;6.20;5.50;;;;;;;;;;5071513;28;20192;-59
2023/09/02 04:05:03;;;;;;;10.30;6.57;;;;;;;;;;5071264;28;20831;-59
2023/09/02 04:07:29;;;;;;;6.27;5.63;;;;;;;;;;5071396;28;20200;-60
2023/09/02 04:09:57;;;;;;;6.30;5.70;;;;;;;;;;5071425;28;20274;-59
2023/09/02 04:12:23;;;;;;;6.67;5.90;;;;;;;;;;5071298;28;20228;-60
2023/09/02 04:14:49;;;;;;;5.93;5.43;;;;;;;;;;5071415;28;20197;-59
2023/09/02 04:17:16;;;;;;;6.23;5.63;;;;;;;;;;5071241;28;20555;-60
2023/09/02 04:19:44;;;;;;;6.60;6.00;;;;;;;;;;5071343;28;20536;-59
2023/09/02 04:22:10;;;;;;;6.63;5.30;;;;;;;;;;5071357;28;20188;-59
2023/09/02 04:24:36;;;;;;;6.47;5.80;;;;;;;;;;5071237;28;20208;-59
2023/09/02 04:27:02;;;;;;;8.17;5.50;;;;;;;;;;5071147;28;20192;-60
2023/09/02 04:29:28;;;;;;;6.37;5.60;;;;;;;;;;5074079;28;20196;-60
2023/09/02 04:31:54;;;;;;;5.60;5.00;;;;;;;;;;5074823;28;20262;-59
2023/09/02 04:34:20;;;;;;;6.53;5.83;;;;;;;;;;5074766;28;20191;-59
2023/09/02 04:36:47;;;;;;;7.97;5.87;;;;;;;;;;5074827;28;20195;-59
2023/09/02 04:39:13;;;;;;;7.57;5.53;;;;;;;;;;5074608;28;20322;-59
2023/09/02 04:41:39;;;;;;;6.20;5.60;;;;;;;;;;5074810;28;20213;-59
2023/09/02 04:44:05;;;;;;;6.13;5.30;;;;;;;;;;5073916;28;20235;-59
2023/09/02 04:46:31;;;;;;;5.70;5.20;;;;;;;;;;5074626;28;20210;-59
2023/09/02 04:48:57;;;;;;;6.33;5.73;;;;;;;;;;5074379;28;20283;-60
2023/09/02 04:51:23;;;;;;;7.20;5.37;;;;;;;;;;5074518;28;20287;-59
2023/09/02 04:53:50;;;;;;;6.30;5.70;;;;;;;;;;5074307;28;20744;-60
2023/09/02 04:56:17;;;;;;;6.10;5.30;;;;;;;;;;5073114;28;20206;-60
2023/09/02 04:58:43;;;;;;;6.43;5.50;;;;;;;;;;5074409;28;20234;-60
2023/09/02 05:01:09;;;;;;;7.13;5.90;;;;;;;;;;5074356;28;20201;-60
2023/09/02 05:03:35;;;;;;;6.00;5.50;;;;;;;;;;5074283;28;20200;-61
2023/09/02 05:06:02;;;;;;;7.70;5.60;;;;;;;;;;5074185;28;20207;-60
2023/09/02 05:08:32;;;;;;;6.83;5.50;;;;;;;;;;5074042;28;20697;-60
2023/09/02 05:10:59;;;;;;;5.77;5.27;;;;;;;;;;5074020;28;20701;-59
2023/09/02 05:13:25;;;;;;;6.10;5.50;;;;;;;;;;5074157;28;20227;-60
2023/09/02 05:15:51;;;;;;;6.87;5.23;;;;;;;;;;5073885;28;20274;-61
2023/09/02 05:18:17;;;;;;;5.93;5.07;;;;;;;;;;5073956;28;20192;-60
2023/09/02 05:20:43;;;;;;;6.00;4.97;;;;;;;;;;5073886;28;20199;-60
2023/09/02 05:23:09;;;;;;;7.67;5.30;;;;;;;;;;5073835;28;20219;-60
2023/09/02 05:25:35;;;;;;;7.67;5.50;;;;;;;;;;5072183;28;20253;-60
2023/09/02 05:28:03;;;;;;;6.70;5.10;;;;;;;;;;5073842;28;20230;-60
2023/09/02 05:30:30;;;;;;;5.50;5.00;;;;;;;;;;5073760;28;20195;-60
2023/09/02 05:32:56;;;;;;;5.80;5.20;;;;;;;;;;5073605;28;20595;-60
2023/09/02 05:35:22;;;;;;;6.23;5.30;;;;;;;;;;5073590;28;20203;-60
2023/09/02 05:37:48;;;;;;;6.37;5.13;;;;;;;;;;5073604;28;20212;-60
2023/09/02 05:40:15;;;;;;;6.00;5.40;;;;;;;;;;5072420;28;20204;-60
2023/09/02 05:42:41;;;;;;;5.63;5.13;;;;;;;;;;5073402;28;20236;-60
2023/09/02 05:45:09;;;;;;;5.77;5.27;;;;;;;;;;5073408;28;20200;-60
2023/09/02 05:47:35;;;;;;;5.97;5.30;;;;;;;;;;5073523;28;20248;-60
2023/09/02 05:50:01;;;;;;;7.20;5.70;;;;;;;;;;5073279;28;20385;-63
2023/09/02 05:52:27;;;;;;;7.47;5.27;;;;;;;;;;5073141;28;20655;-60
2023/09/02 05:54:53;;;;;;;5.90;5.30;;;;;;;;;;5073327;28;20209;-60
2023/09/02 05:57:19;;;;;;;6.23;5.60;;;;;;;;;;5073240;28;20676;-59
2023/09/02 05:59:45;;;;;;;5.90;5.30;;;;;;;;;;5073113;28;20196;-59
2023/09/02 06:02:13;;;;;;;6.47;5.53;;;;;;;;;;5073304;28;20199;-60
2023/09/02 06:04:39;;;;;;;6.40;5.80;;;;;;;;;;5073190;28;20216;-60
2023/09/02 06:07:05;;;;;;;9.57;5.90;;;;;;;;;;5072972;28;20196;-59
2023/09/02 06:09:31;;;;;;;5.87;5.07;;;;;;;;;;5072793;28;20310;-60
2023/09/02 06:11:57;;;;;;;5.67;5.17;;;;;;;;;;5072789;28;20228;-60
2023/09/02 06:14:23;;;;;;;7.47;5.60;;;;;;;;;;5073016;28;20209;-60
2023/09/02 06:16:50;;;;;;;6.07;5.47;;;;;;;;;;5072913;28;20215;-60
2023/09/02 06:19:18;;;;;;;7.10;5.37;;;;;;;;;;5072564;28;20204;-59
2023/09/02 06:21:45;;;;;;;7.83;5.77;;;;;;;;;;5072723;28;20295;-60
2023/09/02 06:24:11;;;;;;;6.23;5.30;;;;;;;;;;5072616;28;20273;-60
2023/09/02 06:26:37;;;;;;;6.03;5.20;;;;;;;;;;5072833;28;20199;-60
2023/09/02 06:29:03;;;;;;;7.33;5.03;;;;;;;;;;5072501;28;20203;-60
2023/09/02 06:31:29;;;;;;;8.47;5.80;;;;;;;;;;5072534;28;20227;-60
2023/09/02 06:33:55;;;;;;;6.30;5.37;;;;;;;;;;5072556;28;20235;-60
2023/09/02 06:36:22;;;;;;;7.47;5.40;;;;;;;;;;5072265;28;20669;-60
2023/09/02 06:38:50;;;;;;;5.97;5.37;;;;;;;;;;5072322;28;20667;-59
2023/09/02 06:41:16;;;;;;;6.87;5.90;;;;;;;;;;5072216;28;20181;-60
2023/09/02 06:43:42;;;;;;;5.83;5.33;;;;;;;;;;5069456;28;20235;-60
2023/09/02 06:46:12;;;;;;;9.20;8.27;;;;;;;;;;5072139;28;20651;-59
2023/09/02 06:48:38;;;;;;;6.13;5.37;;;;;;;;;;5072331;28;20288;-59
2023/09/02 06:51:04;;;;;;;6.40;5.30;;;;;;;;;;5072051;28;20232;-59
2023/09/02 06:53:32;;;;;;;6.43;5.60;;;;;;;;;;5072161;28;20236;-59
2023/09/02 06:55:58;;;;;;;6.57;5.13;;;;;;;;;;5072071;28;20670;-60
2023/09/02 06:58:24;;;;;;;7.40;5.00;;;;;;;;;;5072324;28;20210;-59
2023/09/02 07:00:50;;;;;;;6.87;6.23;;;;;;;;;;5072170;28;20201;-60
2023/09/02 07:03:16;;;;;;;11.83;6.97;;;;;;;;;;5071817;28;20201;-62
2023/09/02 07:05:42;;;;;;;6.83;5.70;;;;;;;;;;5072120;28;20206;-59
2023/09/02 07:08:08;;;;;;;7.03;5.80;;;;;;;;;;5071947;28;20250;-60
2023/09/02 07:10:35;;;;;;;8.87;7.20;;;;;;;;;;5072032;28;20209;-59
2023/09/02 07:13:02;;;;;;;6.87;6.17;;;;;;;;;;5071855;28;20606;-60
2023/09/02 07:15:28;;;;;;;9.93;6.90;;;;;;;;;;5071948;28;20203;-60
2023/09/02 07:17:54;;;;;;;8.53;7.73;;;;;;;;;;5071949;28;20188;-59
2023/09/02 07:20:20;;;;;;;7.93;7.07;;;;;;;;;;5071687;28;20296;-58
2023/09/02 07:22:46;;;;;;;8.87;6.30;;;;;;;;;;5072030;28;20197;-59
2023/09/02 07:25:12;;;;;;;7.57;6.80;;;;;;;;;;5071784;28;20216;-61
2023/09/02 07:27:40;;;;;;;6.87;5.87;;;;;;;;;;5072024;28;20237;-58
2023/09/02 07:30:06;;;;;;;6.70;6.10;;;;;;;;;;5071553;28;20285;-56
2023/09/02 07:32:32;;;;;;;5.93;5.33;;;;;;;;;;5071786;28;20229;-57
2023/09/02 07:34:59;;;;;;;5.60;5.03;;;;;;;;;;5071718;28;20199;-55
2023/09/02 07:37:25;;;;;;;7.60;6.03;;;;;;;;;;5071899;28;20278;-56
2023/09/02 07:39:51;;;;;;;7.40;6.73;;;;;;;;;;5071861;28;20222;-55
2023/09/02 07:42:17;;;;;;;7.60;6.00;;;;;;;;;;5071236;28;20828;-56
2023/09/02 07:44:44;;;;;;;6.57;5.70;;;;;;;;;;5071705;28;20231;-55
2023/09/02 07:47:10;;;;;;;15.13;13.33;;;;;;;;;;5071599;28;20203;-55
2023/09/02 07:49:36;;;;;;;7.37;6.27;;;;;;;;;;5071408;28;20636;-56
2023/09/02 07:52:02;;;;;;;7.63;5.97;;;;;;;;;;5071417;28;20589;-55
2023/09/02 07:54:28;;;;;;;7.00;5.93;;;;;;;;;;5069588;28;20283;-55
2023/09/02 07:56:54;;;;;;;7.00;5.57;;;;;;;;;;5071678;28;20287;-55
2023/09/02 07:59:20;;;;;;;8.40;6.60;;;;;;;;;;5069525;28;20199;-56
2023/09/02 08:01:48;;;;;;;6.20;5.60;;;;;;;;;;5071195;28;20199;-55
2023/09/02 08:04:14;;;;;;;6.90;5.73;;;;;;;;;;5073674;28;20708;-56
2023/09/02 08:06:42;;;;;;;7.70;5.87;;;;;;;;;;5075278;28;20680;-55
2023/09/02 08:09:08;;;;;;;6.63;5.67;;;;;;;;;;5075052;28;20226;-56
2023/09/02 08:11:34;;;;;;;6.53;5.93;;;;;;;;;;5075074;28;20234;-56
2023/09/02 08:14:00;;;;;;;7.00;6.30;;;;;;;;;;5074888;28;20227;-56
2023/09/02 08:16:26;;;;;;;7.53;6.83;;;;;;;;;;5075195;28;20661;-54
2023/09/02 08:18:53;;;;;;;7.03;5.37;;;;;;;;;;5074804;28;20195;-56
2023/09/02 08:21:19;;;;;;;5.83;4.97;;;;;;;;;;5074612;28;20204;-56
2023/09/02 08:23:45;;;;;;;6.60;5.40;;;;;;;;;;5074262;28;20543;-55
2023/09/02 08:26:15;;;;;;;9.37;8.07;;;;;;;;;;5074366;28;20279;-54
2023/09/02 08:28:42;;;;;;;5.13;4.63;;;;;;;;;;5074815;28;20238;-54
2023/09/02 08:31:11;;;;;;;6.23;5.00;;;;;;;;;;5074738;28;20228;-54
2023/09/02 08:33:37;;;;;;;4.90;4.50;;;;;;;;;;5074725;28;20317;-54
2023/09/02 08:36:04;;;;;;;7.27;4.73;;;;;;;;;;5074469;28;20192;-54
2023/09/02 08:38:34;;;;;;;5.20;4.80;;;;;;;;;;5074485;28;20207;-55
2023/09/02 08:41:02;;;;;;;4.90;4.40;;;;;;;;;;5074125;28;20233;-55
2023/09/02 08:43:28;;;;;;;5.53;4.77;;;;;;;;;;5074098;28;20661;-55
2023/09/02 08:45:57;;;;;;;5.73;4.93;;;;;;;;;;5074109;28;20204;-55
2023/09/02 08:48:24;;;;;;;6.77;4.97;;;;;;;;;;5074455;28;20200;-54
2023/09/02 08:50:51;;;;;;;6.17;5.57;;;;;;;;;;5074557;28;20651;-55
2023/09/02 08:53:19;;;;;;;5.77;5.00;;;;;;;;;;5074114;28;20250;-55
2023/09/02 08:55:47;;;;;;;7.87;4.57;;;;;;;;;;5074220;28;20233;-54
2023/09/02 08:58:13;;;;;;;5.47;4.97;;;;;;;;;;5073978;28;20200;-54
2023/09/02 09:00:41;;;;;;;5.83;4.70;;;;;;;;;;5074364;28;20203;-55
2023/09/02 09:03:08;;;;;;;5.57;4.87;;;;;;;;;;5074052;28;20231;-54
2023/09/02 09:05:34;;;;;;;6.10;4.80;;;;;;;;;;5074338;28;20205;-54
2023/09/02 09:08:01;;;;;;;5.97;5.37;;;;;;;;;;5074028;28;20291;-55
2023/09/02 09:10:32;;;;;;;6.13;5.30;;;;;;;;;;5074118;28;20240;-54
2023/09/02 09:12:59;;;;;;;13.50;12.23;;;;;;;;;;5073776;28;20763;-55
2023/09/02 09:15:25;;;;;;;6.87;6.27;;;;;;;;;;5073868;28;20254;-55
2023/09/02 09:17:51;;;;;;;6.00;4.87;;;;;;;;;;5073838;28;20259;-54
2023/09/02 09:20:17;;;;;;;5.90;5.30;;;;;;;;;;5073692;28;20270;-55
2023/09/02 09:22:43;;;;;;;6.60;5.50;;;;;;;;;;5073575;28;20200;-54
2023/09/02 09:25:10;;;;;;;6.33;5.73;;;;;;;;;;5073495;28;20206;-55
2023/09/02 09:27:37;;;;;;;7.63;5.23;;;;;;;;;;5073528;28;20216;-55
2023/09/02 09:30:04;;;;;;;6.17;4.90;;;;;;;;;;5073582;28;20199;-55
2023/09/02 09:32:31;;;;;;;5.60;4.93;;;;;;;;;;5073311;28;20220;-55
2023/09/02 09:34:57;;;;;;;6.10;5.20;;;;;;;;;;5073548;28;20245;-55
2023/09/02 09:37:23;;;;;;;6.30;4.73;;;;;;;;;;5073042;28;20192;-55
2023/09/02 09:39:53;;;;;;;4.40;4.00;;;;;;;;;;5073110;28;20215;-55
2023/09/02 09:42:32;;;;;;;7.30;5.57;;;;;;;;;;5072877;28;20256;-54
2023/09/02 09:45:01;;;;;;;26.00;23.80;;;;;;;;;;5073101;28;20610;-54
2023/09/02 09:47:27;;;;;;;8.10;6.60;;;;;;;;;;5073113;28;20223;-54
2023/09/02 09:49:53;;;;;;;5.87;5.30;;;;;;;;;;5073105;28;20196;-56
2023/09/02 09:52:20;;;;;;;6.33;4.53;;;;;;;;;;5072738;28;20216;-55
2023/09/02 09:54:50;;;;;;;5.80;4.50;;;;;;;;;;5071016;28;20675;-55
2023/09/02 09:57:18;;;;;;;5.37;4.87;;;;;;;;;;5072466;28;20278;-55
2023/09/02 09:59:53;;;;;;;5.57;4.93;;;;;;;;;;5072527;28;20544;-54
2023/09/02 10:02:21;;;;;;;8.13;5.40;;;;;;;;;;5072370;28;20270;-55
2023/09/02 10:04:51;;;;;;;6.63;5.83;;;;;;;;;;5072510;28;20282;-55
2023/09/02 10:07:19;;;;;;;5.17;4.60;;;;;;;;;;5072106;28;20227;-55
2023/09/02 10:09:45;;;;;;;9.50;7.30;;;;;;;;;;5072513;28;20282;-55
2023/09/02 10:12:12;;;;;;;5.73;5.13;;;;;;;;;;5072404;28;20604;-55
2023/09/02 10:14:39;;;;;;;5.50;5.00;;;;;;;;;;5072537;28;20203;-55
2023/09/02 10:17:06;;;;;;;9.73;8.73;;;;;;;;;;5072211;28;20215;-55
2023/09/02 10:19:34;;;;;;;6.23;5.53;;;;;;;;;;5072229;28;20289;-55
2023/09/02 10:22:01;;;;;;;6.83;4.97;;;;;;;;;;5072289;28;20654;-55
2023/09/02 10:24:29;;;;;;;10.23;7.33;;;;;;;;;;5072218;28;20544;-54
2023/09/02 10:26:57;;;;;;;6.10;5.10;;;;;;;;;;5071868;28;20195;-55
2023/09/02 10:29:26;;;;;;;7.67;5.27;;;;;;;;;;5072229;28;20230;-54
2023/09/02 10:31:55;;;;;;;7.77;5.23;;;;;;;;;;5072188;28;20215;-55
2023/09/02 10:34:27;;;;;;;5.57;4.87;;;;;;;;;;5071980;28;20204;-55
2023/09/02 10:36:59;;;;;;;5.57;4.70;;;;;;;;;;5072025;28;20207;-56
2023/09/02 10:39:29;;;;;;;5.50;4.40;;;;;;;;;;5071954;28;20265;-63
2023/09/02 10:41:56;;;;;;;6.43;4.13;;;;;;;;;;5071814;28;20257;-55
2023/09/02 10:44:22;;;;;;;5.93;4.07;;;;;;;;;;5071300;28;20206;-56
2023/09/02 10:46:48;;;;;;;6.20;4.90;;;;;;;;;;5071822;28;20199;-55
2023/09/02 10:49:15;;;;;;;5.33;4.40;;;;;;;;;;5071684;28;20304;-55
2023/09/02 10:51:41;;;;;;;6.63;5.80;;;;;;;;;;5071882;28;20287;-54
2023/09/02 10:54:09;;;;;;;5.40;4.87;;;;;;;;;;5071607;28;20227;-55
2023/09/02 10:56:36;;;;;;;4.00;3.60;;;;;;;;;;5071392;28;20225;-55
2023/09/02 10:59:02;;;;;;;5.07;4.53;;;;;;;;;;5071648;28;20224;-55
2023/09/02 11:01:42;;;;;;;8.03;5.07;;;;;;;;;;5071695;28;20258;-55
2023/09/02 11:04:08;;;;;;;5.30;4.80;;;;;;;;;;5072027;28;20198;-56
2023/09/02 11:06:34;;;;;;;7.17;4.60;;;;;;;;;;5071758;28;20261;-54
2023/09/02 11:09:00;;;;;;;6.10;3.97;;;;;;;;;;5071756;28;20204;-53
2023/09/02 11:11:47;;;;;;;5.37;4.13;;;;;;;;;;5071859;28;20197;-54
2023/09/02 11:14:19;;;;;;;5.27;4.50;;;;;;;;;;5071641;28;20353;-54
2023/09/02 11:16:46;;;;;;;5.87;4.33;;;;;;;;;;5071783;28;20204;-54
2023/09/02 11:19:12;;;;;;;4.03;3.60;;;;;;;;;;5071888;28;20247;-54
2023/09/02 11:21:39;;;;;;;5.40;4.10;;;;;;;;;;5070479;28;20253;-53
2023/09/02 11:24:13;;;;;;;7.10;4.53;;;;;;;;;;5071704;28;20198;-55
2023/09/02 11:26:50;;;;;;;4.93;4.13;;;;;;;;;;5070612;28;20662;-54
2023/09/02 11:29:23;;;;;;;3.97;3.03;;;;;;;;;;5071164;28;20200;-53
2023/09/02 11:31:55;;;;;;;4.73;3.10;;;;;;;;;;5071674;28;20219;-55
2023/09/02 11:34:21;;;;;;;6.07;3.80;;;;;;;;;;5071475;28;20232;-54
2023/09/02 11:36:50;;;;;;;4.50;3.93;;;;;;;;;;5071822;28;20548;-55
2023/09/02 11:39:16;;;;;;;4.83;3.70;;;;;;;;;;5074419;28;20204;-54
2023/09/02 11:41:42;;;;;;;4.87;4.33;;;;;;;;;;5075758;28;20677;-54
2023/09/02 11:44:10;;;;;;;4.77;4.20;;;;;;;;;;5075518;28;20665;-54
2023/09/02 11:46:37;;;;;;;5.50;4.70;;;;;;;;;;5075503;28;20217;-55
2023/09/02 11:49:03;;;;;;;5.33;4.80;;;;;;;;;;5075707;28;20193;-54
2023/09/02 11:51:29;;;;;;;4.47;3.77;;;;;;;;;;5075685;28;20251;-54
2023/09/02 11:53:56;;;;;;;6.00;4.00;;;;;;;;;;5075593;28;20225;-55
2023/09/02 11:56:23;;;;;;;3.87;3.33;;;;;;;;;;5075460;28;20202;-55
2023/09/02 11:58:49;;;;;;;4.97;3.53;;;;;;;;;;5075605;28;20201;-56
2023/09/02 12:01:16;;;;;;;4.33;3.93;;;;;;;;;;5075333;28;20206;-56
2023/09/02 12:03:43;;;;;;;6.87;4.90;;;;;;;;;;5075389;28;20194;-56
2023/09/02 12:06:09;;;;;;;6.03;3.90;;;;;;;;;;5075455;28;20206;-56
2023/09/02 12:08:35;;;;;;;7.33;6.73;;;;;;;;;;5075246;28;20638;-56
2023/09/02 12:11:03;;;;;;;6.93;4.60;;;;;;;;;;5075424;28;20207;-54
2023/09/02 12:13:29;;;;;;;4.40;3.40;;;;;;;;;;5074928;28;20580;-54
2023/09/02 12:16:15;;;;;;;4.67;3.80;;;;;;;;;;5075360;28;20214;-54
2023/09/02 12:18:42;;;;;;;4.23;3.53;;;;;;;;;;5072155;28;20240;-54
2023/09/02 12:21:08;;;;;;;7.83;5.13;;;;;;;;;;5069432;28;20213;-54
2023/09/02 12:23:35;;;;;;;4.40;3.67;;;;;;;;;;5059578;28;20291;-54
2023/09/02 12:26:03;;;;;;;5.47;3.43;;;;;;;;;;5061840;28;20200;-54
2023/09/02 12:28:29;;;;;;;3.93;3.50;;;;;;;;;;5051899;28;20207;-54
2023/09/02 12:30:56;;;;;;;3.60;3.27;;;;;;;;;;5054207;28;20564;-54
2023/09/02 12:33:22;;;;;;;5.73;4.47;;;;;;;;;;5053895;28;20224;-53
2023/09/02 12:35:50;;;;;;;4.70;4.17;;;;;;;;;;5054179;28;20572;-53
2023/09/02 12:38:16;;;;;;;5.27;3.20;;;;;;;;;;5054360;28;20590;-54
2023/09/02 12:40:51;;;;;;;5.80;3.37;;;;;;;;;;5054515;28;20211;-54
2023/09/02 12:43:23;;;;;;;3.63;3.30;;;;;;;;;;5054111;28;20230;-55
2023/09/02 12:45:49;;;;;;;6.03;3.23;;;;;;;;;;5054496;28;20217;-54
2023/09/02 12:48:15;;;;;;;5.10;3.43;;;;;;;;;;5054274;28;20202;-54
2023/09/02 12:50:41;;;;;;;5.37;3.77;;;;;;;;;;5054079;28;20274;-54
2023/09/02 12:53:10;;;;;;;4.27;3.50;;;;;;;;;;5054194;28;20234;-54
2023/09/02 12:55:40;;;;;;;3.93;3.07;;;;;;;;;;5054156;28;20226;-54
2023/09/02 12:58:06;;;;;;;6.57;3.20;;;;;;;;;;5054132;28;20206;-54
2023/09/02 13:00:32;;;;;;;5.97;3.10;;;;;;;;;;5054220;28;20257;-54
2023/09/02 13:02:58;;;;;;;6.33;3.70;;;;;;;;;;5054135;28;20620;-54
2023/09/02 13:05:24;;;;;;;6.07;3.87;;;;;;;;;;5054193;28;20205;-54
2023/09/02 13:07:50;;;;;;;9.13;5.63;;;;;;;;;;5054053;28;20205;-55
2023/09/02 13:10:17;;;;;;;4.37;3.93;;;;;;;;;;5053898;28;20215;-54
2023/09/02 13:12:43;;;;;;;7.00;4.87;;;;;;;;;;5053845;28;20309;-55
2023/09/02 13:15:10;;;;;;;5.17;3.90;;;;;;;;;;5053913;28;20284;-55
2023/09/02 13:17:36;;;;;;;4.20;3.80;;;;;;;;;;5053879;28;20186;-54
2023/09/02 13:20:02;;;;;;;6.80;5.07;;;;;;;;;;5053907;28;20197;-55
2023/09/02 13:22:28;;;;;;;5.77;4.10;;;;;;;;;;5053572;28;20665;-55
2023/09/02 13:24:54;;;;;;;7.27;5.07;;;;;;;;;;5053838;28;20200;-55
2023/09/02 13:27:28;;;;;;;5.03;4.53;;;;;;;;;;5053610;28;20255;-54
2023/09/02 13:29:54;;;;;;;4.67;3.27;;;;;;;;;;5053937;28;20251;-54
2023/09/02 13:32:23;;;;;;;4.17;3.50;;;;;;;;;;5053559;28;20567;-55
2023/09/02 13:34:49;;;;;;;4.83;3.47;;;;;;;;;;5053659;28;20280;-55
2023/09/02 13:37:19;;;;;;;3.53;3.07;;;;;;;;;;5053356;28;20208;-55
2023/09/02 13:39:45;;;;;;;3.87;3.17;;;;;;;;;;5053388;28;20207;-57
2023/09/02 13:42:14;;;;;;;3.47;2.93;;;;;;;;;;5053118;28;20252;-57
2023/09/02 13:44:42;;;;;;;4.37;3.00;;;;;;;;;;5053434;28;20207;-55
2023/09/02 13:47:08;;;;;;;6.03;3.70;;;;;;;;;;5053386;28;20241;-55
2023/09/02 13:49:35;;;;;;;5.57;3.30;;;;;;;;;;5053047;28;20256;-55
2023/09/02 13:52:02;;;;;;;5.03;3.20;;;;;;;;;;5053229;28;20202;-56
2023/09/02 13:54:28;;;;;;;3.93;2.80;;;;;;;;;;5053002;28;20229;-56
2023/09/02 13:56:54;;;;;;;5.03;2.70;;;;;;;;;;5053238;28;20203;-58
2023/09/02 13:59:22;;;;;;;5.87;3.30;;;;;;;;;;5052895;28;20200;-57
2023/09/02 14:01:49;;;;;;;3.43;2.70;;;;;;;;;;5051971;28;20571;-57
2023/09/02 14:04:16;;;;;;;3.67;3.03;;;;;;;;;;5052849;28;20687;-56
2023/09/02 14:06:42;;;;;;;3.40;2.50;;;;;;;;;;5053059;28;20256;-56
2023/09/02 14:09:16;;;;;;;3.47;2.90;;;;;;;;;;5052938;28;20253;-56
2023/09/02 14:11:42;;;;;;;4.17;3.27;;;;;;;;;;5052789;28;20229;-56
2023/09/02 14:14:11;;;;;;;3.60;3.20;;;;;;;;;;5052675;28;20577;-57
2023/09/02 14:16:37;;;;;;;3.87;2.87;;;;;;;;;;5052790;28;20814;-57
2023/09/02 14:19:04;;;;;;;3.70;2.63;;;;;;;;;;5052556;28;20282;-56
2023/09/02 14:21:30;;;;;;;5.23;3.13;;;;;;;;;;5052399;28;20210;-56
2023/09/02 14:23:56;;;;;;;4.73;2.70;;;;;;;;;;5052718;28;20186;-56
2023/09/02 14:26:22;;;;;;;4.97;3.10;;;;;;;;;;5052414;28;20260;-56
2023/09/02 14:28:49;;;;;;;5.47;3.17;;;;;;;;;;5052312;28;20203;-56
2023/09/02 14:31:15;;;;;;;3.90;2.90;;;;;;;;;;5052307;28;20209;-56
2023/09/02 14:33:41;;;;;;;3.70;2.90;;;;;;;;;;5052306;28;20222;-57
2023/09/02 14:36:08;;;;;;;4.67;3.33;;;;;;;;;;5052278;28;20222;-57
2023/09/02 14:38:34;;;;;;;4.20;3.20;;;;;;;;;;5052157;28;20201;-58
2023/09/02 14:41:00;;;;;;;4.33;3.30;;;;;;;;;;5052124;28;20604;-58